Map

Track Data

SID SEASON NUMBER BASIN SUBBASIN NAME ISO_TIME NATURE LAT LON WMO_WIND WMO_PRES WMO_AGENCY TRACK_TYPE DIST2LAND LANDFALL IFLAG USA_AGENCY USA_ATCF_ID USA_LAT USA_LON USA_RECORD USA_STATUS USA_WIND USA_PRES USA_SSHS USA_R34_NE USA_R34_SE USA_R34_SW USA_R34_NW USA_R50_NE USA_R50_SE USA_R50_SW USA_R50_NW USA_R64_NE USA_R64_SE USA_R64_SW USA_R64_NW USA_POCI USA_ROCI USA_RMW USA_EYE TOKYO_LAT TOKYO_LON TOKYO_GRADE TOKYO_WIND TOKYO_PRES TOKYO_R50_DIR TOKYO_R50_LONG TOKYO_R50_SHORT TOKYO_R30_DIR TOKYO_R30_LONG TOKYO_R30_SHORT TOKYO_LAND CMA_LAT CMA_LON CMA_CAT CMA_WIND CMA_PRES HKO_LAT HKO_LON HKO_CAT HKO_WIND HKO_PRES NEWDELHI_LAT NEWDELHI_LON NEWDELHI_GRADE NEWDELHI_WIND NEWDELHI_PRES NEWDELHI_CI NEWDELHI_DP NEWDELHI_POCI REUNION_LAT REUNION_LON REUNION_TYPE REUNION_WIND REUNION_PRES REUNION_TNUM REUNION_CI REUNION_RMW REUNION_R34_NE REUNION_R34_SE REUNION_R34_SW REUNION_R34_NW REUNION_R50_NE REUNION_R50_SE REUNION_R50_SW REUNION_R50_NW REUNION_R64_NE REUNION_R64_SE REUNION_R64_SW REUNION_R64_NW BOM_LAT BOM_LON BOM_TYPE BOM_WIND BOM_PRES BOM_TNUM BOM_CI BOM_RMW BOM_R34_NE BOM_R34_SE BOM_R34_SW BOM_R34_NW BOM_R50_NE BOM_R50_SE BOM_R50_SW BOM_R50_NW BOM_R64_NE BOM_R64_SE BOM_R64_SW BOM_R64_NW BOM_ROCI BOM_POCI BOM_EYE BOM_POS_METHOD BOM_PRES_METHOD NADI_LAT NADI_LON NADI_CAT NADI_WIND NADI_PRES WELLINGTON_LAT WELLINGTON_LON WELLINGTON_WIND WELLINGTON_PRES DS824_LAT DS824_LON DS824_STAGE DS824_WIND DS824_PRES TD9636_LAT TD9636_LON TD9636_STAGE TD9636_WIND TD9636_PRES TD9635_LAT TD9635_LON TD9635_WIND TD9635_PRES TD9635_ROCI NEUMANN_LAT NEUMANN_LON NEUMANN_CLASS NEUMANN_WIND NEUMANN_PRES MLC_LAT MLC_LON MLC_CLASS MLC_WIND MLC_PRES USA_GUST BOM_GUST BOM_GUST_PER REUNION_GUST REUNION_GUST_PER USA_SEAHGT USA_SEARAD_NE USA_SEARAD_SE USA_SEARAD_SW USA_SEARAD_NW STORM_SPEED STORM_DIR
1909313N11279 1909 64 NA CS NOT_NAMED 1909-11-08 12:00:00 TS 10.5000 -81.0000 35 hurdat_atl main 166 166 O_____________ hurdat_atl AL121909 10.5000 -81.0000 TS 35 0 3 43
1909313N11279 1909 64 NA CS NOT_NAMED 1909-11-08 15:00:00 TS 10.6000 -80.9000 main 173 173 P_____________ AL121909 10.6000 -80.9000 TS 35 0 3 45
1909313N11279 1909 64 NA CS NOT_NAMED 1909-11-08 18:00:00 TS 10.7000 -80.8000 35 hurdat_atl main 179 173 O_____________ hurdat_atl AL121909 10.7000 -80.8000 TS 35 0 3 45
1909313N11279 1909 64 NA CS NOT_NAMED 1909-11-08 21:00:00 TS 10.8000 -80.7000 main 182 175 P_____________ AL121909 10.8000 -80.7000 TS 35 0 3 45
1909313N11279 1909 64 NA CS NOT_NAMED 1909-11-09 00:00:00 TS 10.9000 -80.6000 35 hurdat_atl main 185 179 O_____________ hurdat_atl AL121909 10.9000 -80.6000 TS 35 0 3 45
1909313N11279 1909 64 NA CS NOT_NAMED 1909-11-09 03:00:00 TS 11.0000 -80.5000 main 189 189 P_____________ AL121909 11.0000 -80.5000 TS 35 0 3 45
1909313N11279 1909 64 NA CS NOT_NAMED 1909-11-09 06:00:00 TS 11.1000 -80.4000 35 hurdat_atl main 194 190 O_____________ hurdat_atl AL121909 11.1000 -80.4000 TS 35 0 3 46
1909313N11279 1909 64 NA CS NOT_NAMED 1909-11-09 09:00:00 TS 11.1925 -80.3000 main 201 198 P_____________ AL121909 11.1925 -80.3000 TS 35 0 3 45
1909313N11279 1909 64 NA CS NOT_NAMED 1909-11-09 12:00:00 TS 11.3000 -80.2000 35 hurdat_atl main 208 208 O_____________ hurdat_atl AL121909 11.3000 -80.2000 TS 35 0 3 39
1909313N11279 1909 64 NA CS NOT_NAMED 1909-11-09 15:00:00 TS 11.4275 -80.1075 main 217 217 P_____________ AL121909 11.4275 -80.1075 TS 35 0 4 33
1909313N11279 1909 64 NA CS NOT_NAMED 1909-11-09 18:00:00 TS 11.6000 -80.0000 35 hurdat_atl main 237 237 O_____________ hurdat_atl AL121909 11.6000 -80.0000 TS 35 0 5 31
1909313N11279 1909 64 NA CS NOT_NAMED 1909-11-09 21:00:00 TS 11.8275 -79.8575 main 258 257 P_____________ AL121909 11.8275 -79.8575 TS 35 0 6 30
1909313N11279 1909 64 NA CS NOT_NAMED 1909-11-10 00:00:00 TS 12.1000 -79.7000 35 hurdat_atl main 291 291 O_____________ hurdat_atl AL121909 12.1000 -79.7000 TS 35 0 6 28
1909313N11279 1909 64 NA CS NOT_NAMED 1909-11-10 03:00:00 TS 12.3925 -79.5500 main 324 324 P_____________ AL121909 12.3925 -79.5500 TS 37 0 7 26
1909313N11279 1909 64 NA CS NOT_NAMED 1909-11-10 06:00:00 TS 12.7000 -79.4000 40 hurdat_atl main 358 358 O_____________ hurdat_atl AL121909 12.7000 -79.4000 TS 40 0 7 26
1909313N11279 1909 64 NA CS NOT_NAMED 1909-11-10 09:00:00 TS 13.0000 -79.2500 main 391 391 P_____________ AL121909 13.0000 -79.2500 TS 40 0 7 26
1909313N11279 1909 64 NA CS NOT_NAMED 1909-11-10 12:00:00 TS 13.3000 -79.1000 40 hurdat_atl main 425 425 O_____________ hurdat_atl AL121909 13.3000 -79.1000 TS 40 0 7 26
1909313N11279 1909 64 NA CS NOT_NAMED 1909-11-10 15:00:00 TS 13.6000 -78.9500 main 459 458 P_____________ AL121909 13.6000 -78.9500 TS 42 0 7 26
1909313N11279 1909 64 NA CS NOT_NAMED 1909-11-10 18:00:00 TS 13.9000 -78.8000 45 hurdat_atl main 458 423 O_____________ hurdat_atl AL121909 13.9000 -78.8000 TS 45 0 7 25
1909313N11279 1909 64 NA CS NOT_NAMED 1909-11-10 21:00:00 TS 14.2000 -78.6649 main 423 384 P_____________ AL121909 14.2000 -78.6649 TS 45 0 7 26
1909313N11279 1909 64 NA CS NOT_NAMED 1909-11-11 00:00:00 TS 14.5000 -78.5000 45 hurdat_atl main 384 345 O_____________ hurdat_atl AL121909 14.5000 -78.5000 TS 45 0 7 32
1909313N11279 1909 64 NA CS NOT_NAMED 1909-11-11 03:00:00 TS 14.8000 -78.2725 main 345 303 P_____________ AL121909 14.8000 -78.2725 TS 47 0 8 39
1909313N11279 1909 64 NA CS NOT_NAMED 1909-11-11 06:00:00 TS 15.1000 -78.0000 50 hurdat_atl main 303 262 O_____________ hurdat_atl AL121909 15.1000 -78.0000 TS 50 0 8 43
1909313N11279 1909 64 NA CS NOT_NAMED 1909-11-11 09:00:00 TS 15.3850 -77.7148 main 262 224 P_____________ AL121909 15.3850 -77.7148 TS 50 0 8 44
1909313N11279 1909 64 NA CS NOT_NAMED 1909-11-11 12:00:00 TS 15.7000 -77.4000 50 hurdat_atl main 224 179 O_____________ hurdat_atl AL121909 15.7000 -77.4000 TS 50 0 9 42
1909313N11279 1909 64 NA CS NOT_NAMED 1909-11-11 15:00:00 TS 16.0775 -77.0574 main 179 144 P_____________ AL121909 16.0775 -77.0574 TS 52 0 11 40
1909313N11279 1909 64 NA CS NOT_NAMED 1909-11-11 18:00:00 TS 16.5000 -76.7000 55 hurdat_atl main 144 111 O_____________ hurdat_atl AL121909 16.5000 -76.7000 TS 55 0 11 38
1909313N11279 1909 64 NA CS NOT_NAMED 1909-11-11 21:00:00 TS 16.9499 -76.3499 main 111 59 P_____________ AL121909 16.9499 -76.3499 TS 57 0 11 37
1909313N11279 1909 64 NA CS NOT_NAMED 1909-11-12 00:00:00 TS 17.4000 -76.0000 60 hurdat_atl main 59 46 O_____________ hurdat_atl AL121909 17.4000 -76.0000 TS 60 0 11 38
1909313N11279 1909 64 NA CS NOT_NAMED 1909-11-12 03:00:00 TS 17.8074 -75.6572 main 54 54 P_____________ AL121909 17.8074 -75.6572 TS 62 0 10 40
1909313N11279 1909 64 NA CS NOT_NAMED 1909-11-12 06:00:00 TS 18.2000 -75.3000 65 hurdat_atl main 87 47 O_____________ hurdat_atl AL121909 18.2000 -75.3000 HU 65 1 11 41
1909313N11279 1909 64 NA CS NOT_NAMED 1909-11-12 09:00:00 TS 18.6149 -74.9224 main 47 38 P_____________ AL121909 18.6149 -74.9224 HU 67 1 11 43
1909313N11279 1909 64 NA CS NOT_NAMED 1909-11-12 12:00:00 TS 19.0000 -74.5000 70 hurdat_atl main 45 45 O_____________ hurdat_atl AL121909 19.0000 -74.5000 HU 70 1 11 50
1909313N11279 1909 64 NA CS NOT_NAMED 1909-11-12 15:00:00 TS 19.3222 -74.0447 main 68 10 P_____________ AL121909 19.3222 -74.0447 HU 72 1 11 58
1909313N11279 1909 64 NA CS NOT_NAMED 1909-11-12 18:00:00 TS 19.6000 -73.5000 75 hurdat_atl main 10 0 O_____________ hurdat_atl AL121909 19.6000 -73.5000 HU 75 1 12 65
1909313N11279 1909 64 NA NA NOT_NAMED 1909-11-12 21:00:00 TS 19.8573 -72.8522 main 0 0 P_____________ AL121909 19.8573 -72.8522 HU 77 1 14 69
1909313N11279 1909 64 NA NA NOT_NAMED 1909-11-13 00:00:00 TS 20.1000 -72.1000 80 hurdat_atl main 44 39 O_____________ hurdat_atl AL121909 20.1000 -72.1000 HU 80 1 16 71
1909313N11279 1909 64 NA NA NOT_NAMED 1909-11-13 03:00:00 TS 20.3572 -71.2874 main 67 67 P_____________ AL121909 20.3572 -71.2874 HU 82 1 17 73
1909313N11279 1909 64 NA NA NOT_NAMED 1909-11-13 06:00:00 TS 20.6000 -70.4000 85 hurdat_atl main 91 91 O_____________ hurdat_atl AL121909 20.6000 -70.4000 HU 85 2 17 75
1909313N11279 1909 64 NA NA NOT_NAMED 1909-11-13 09:00:00 TS 20.8143 -69.4872 main 143 143 P_____________ AL121909 20.8143 -69.4872 HU 87 2 18 77
1909313N11279 1909 64 NA NA NOT_NAMED 1909-11-13 12:00:00 TS 21.0000 -68.5000 90 hurdat_atl main 207 207 O_____________ hurdat_atl AL121909 21.0000 -68.5000 HU 90 2 20 79
1909313N11279 1909 64 NA NA NOT_NAMED 1909-11-13 15:00:00 TS 21.1721 -67.4300 main 290 290 P_____________ AL121909 21.1721 -67.4300 HU 90 2 21 82
1909313N11279 1909 64 NA NA NOT_NAMED 1909-11-13 18:00:00 TS 21.3000 -66.3000 90 hurdat_atl main 324 324 O_____________ hurdat_atl AL121909 21.3000 -66.3000 HU 90 2 21 85
1909313N11279 1909 64 NA NA NOT_NAMED 1909-11-13 21:00:00 TS 21.3640 -65.1720 main 338 338 P_____________ AL121909 21.3640 -65.1720 HU 90 2 21 87
1909313N11279 1909 64 NA NA NOT_NAMED 1909-11-14 00:00:00 TS 21.4000 -64.0000 90 hurdat_atl main 374 374 O_____________ hurdat_atl AL121909 21.4000 -64.0000 HU 90 2 22 88
1909313N11279 1909 64 NA NA NOT_NAMED 1909-11-14 03:00:00 TS 21.4569 -62.7651 main 453 453 P_____________ AL121909 21.4569 -62.7651 HU 87 2 23 88
1909313N11279 1909 64 NA NA NOT_NAMED 1909-11-14 06:00:00 TS 21.5000 -61.5000 85 hurdat_atl main 551 551 O_____________ hurdat_atl AL121909 21.5000 -61.5000 HU 85 2 23 89
1909313N11279 1909 64 NA NA NOT_NAMED 1909-11-14 09:00:00 TS 21.5066 -60.2498 main 662 662 P_____________ AL121909 21.5066 -60.2498 HU 82 1 23 90
1909313N11279 1909 64 NA NA NOT_NAMED 1909-11-14 12:00:00 TS 21.5000 -59.0000 80 hurdat_atl main 771 771 O_____________ hurdat_atl AL121909 21.5000 -59.0000 HU 80 1 23 90
1909313N11279 1909 64 NA NA NOT_NAMED 1909-11-14 15:00:00 TS 21.4994 -57.7502 main 885 885 P_____________ AL121909 21.4994 -57.7502 HU 77 1 23 90
1909313N11279 1909 64 NA NA NOT_NAMED 1909-11-14 18:00:00 TS 21.5000 -56.5000 75 hurdat_atl main 1012 O_____________ hurdat_atl AL121909 21.5000 -56.5000 HU 75 1 23 90

About IBTrACS Database

This database is a web-friendly format of International Best Track Archive for Climate Stewardship (IBTrACS), a global best track data archive curated by NOAA dating back to 1842.

Updated: 2021-10-08